Overview Statistics Trail Chart Weather Telemetry Raw packets
 

This is the latest recevied weather packets stored in our database for station/object KI5NYZ-13. If no packets are shown the sender has not sent any weather packets the latest 10 day(s).

<< 3 4 5 6 7 8 9 >>
Time Temp. Humidity Pressure Rain* Wind** Luminosity Snow
1788388964 37.78° C 22% 1004 hPa 0 mm - - -
1788387163 37.22° C 23% 1004.4 hPa 0 mm - - -
1788385362 37.78° C 23% 1004.5 hPa 0.25 mm - - -
1788383562 36.67° C 23% 1005.1 hPa 0 mm - - -
1788381760 36.67° C 23% 1005.6 hPa 0.25 mm - - -
1788379960 36.67° C 24% 1006.1 hPa 0.51 mm - - -
1788378160 36.11° C 25% 1006.7 hPa 0.51 mm - - -
1788376356 36.67° C 25% 1007 hPa 0.51 mm - - -
1788374555 35.56° C 27% 1007.8 hPa 0.76 mm - - -
1788372754 35° C 28% 1008.6 hPa 1.02 mm - - -
1788370953 34.44° C 31% 1009.4 hPa 1.02 mm - - -
1788369152 33.33° C 33% 1009.8 hPa 0.76 mm - - -
1788367351 32.22° C 36% 1010.3 hPa 0.76 mm - - -
1788365550 31.11° C 38% 1010.8 hPa 1.52 mm - - -
1788363749 29.44° C 42% 1011.3 hPa 2.03 mm - - -
1788361948 28.33° C 44% 1011.7 hPa 1.02 mm - - -
1788360148 27.22° C 47% 1012.1 hPa 0 mm - - -
1788358347 24.44° C 52% 1013 hPa 0 mm - - -
1788356545 22.78° C 59% 1013.7 hPa 0 mm - - -
1788354744 22.22° C 58% 1013.3 hPa 0 mm - - -
1788352943 21.11° C 60% 1013.4 hPa 0 mm - - -
1788351142 21.11° C 60% 1013.4 hPa 0 mm - - -
1788349341 21.67° C 58% 1013.1 hPa 0 mm - - -
1788347540 22.22° C 57% 1013.1 hPa 0 mm - - -
1788345739 22.22° C 57% 1013 hPa 0 mm - - -

* Rain latest hour (hover to see other rain measurements)
** Current wind speed in m/s (hover to see current wind gust speed)